createdAt,value
2018-08-09T03:57:39.840Z,11.50
2018-08-09T04:03:06.442Z,13.47
2018-08-09T04:05:35.332Z,13.20
2018-08-09T04:08:04.029Z,13.20
2018-08-09T04:10:33.056Z,13.07
2018-08-09T04:13:02.218Z,13.03
2018-08-09T04:15:31.046Z,15.47
2018-08-09T04:18:00.187Z,12.00
2018-08-09T04:20:29.154Z,13.77
2018-08-09T04:22:58.186Z,13.03
2018-08-09T04:25:27.277Z,11.97
2018-08-09T04:27:56.183Z,10.90
2018-08-09T04:30:25.061Z,12.20
2018-08-09T04:32:54.364Z,12.37
2018-08-09T04:35:23.464Z,12.97
2018-08-09T04:37:52.357Z,12.07
2018-08-09T04:40:21.451Z,13.60
2018-08-09T04:42:50.332Z,11.37
2018-08-09T04:45:19.438Z,9.50
2018-08-09T04:47:48.323Z,10.63
2018-08-09T04:50:17.332Z,11.73
2018-08-09T04:52:46.110Z,10.77
2018-08-09T04:55:15.205Z,11.17
2018-08-09T04:57:44.085Z,11.40
2018-08-09T05:00:12.986Z,10.33
2018-08-09T05:02:41.877Z,10.10
2018-08-09T05:05:10.905Z,10.17
2018-08-09T05:07:40.037Z,10.27
2018-08-09T05:10:10.224Z,9.83
2018-08-09T05:12:41.085Z,9.80
2018-08-09T05:15:09.962Z,10.17
2018-08-09T05:17:38.757Z,9.87
2018-08-09T05:20:07.933Z,8.80
2018-08-09T05:22:37.101Z,8.30
2018-08-09T05:25:07.015Z,8.63
2018-08-09T05:27:36.020Z,9.17
2018-08-09T05:30:05.882Z,9.83
2018-08-09T05:32:34.700Z,9.43
2018-08-09T05:35:03.577Z,9.00
2018-08-09T05:37:32.535Z,8.80
2018-08-09T05:40:01.549Z,8.23
2018-08-09T05:42:30.412Z,8.97
2018-08-09T05:44:59.364Z,8.97
2018-08-09T05:47:28.281Z,9.20
2018-08-09T05:49:57.355Z,8.60
2018-08-09T05:52:26.308Z,8.23
2018-08-09T05:54:55.344Z,8.77
2018-08-09T05:57:24.225Z,9.50
2018-08-09T05:59:53.504Z,8.23
2018-08-09T06:02:22.361Z,8.80
2018-08-09T06:04:51.309Z,7.27
2018-08-09T06:07:20.280Z,8.77
2018-08-09T06:09:49.245Z,7.10
2018-08-09T06:12:18.125Z,7.40
2018-08-09T06:14:47.228Z,7.87
2018-08-09T06:17:16.380Z,8.67
2018-08-09T06:19:45.405Z,7.50
2018-08-09T06:22:14.778Z,6.80
2018-08-09T06:24:43.842Z,7.40
2018-08-09T06:27:12.755Z,7.63
2018-08-09T06:29:41.860Z,6.70
2018-08-09T06:32:10.955Z,7.40
2018-08-09T06:34:39.775Z,6.83
2018-08-09T06:37:08.757Z,7.07
2018-08-09T06:39:37.552Z,7.60
2018-08-09T06:42:06.497Z,7.40
2018-08-09T06:44:35.612Z,6.17
2018-08-09T06:47:04.531Z,6.50
2018-08-09T06:49:33.408Z,6.47
2018-08-09T06:52:02.646Z,6.23
2018-08-09T06:54:31.464Z,6.37
2018-08-09T06:57:00.886Z,5.77
2018-08-09T06:59:30.186Z,7.20
2018-08-09T07:01:59.189Z,7.30
2018-08-09T07:04:28.581Z,7.30
2018-08-09T07:06:57.307Z,5.77
2018-08-09T07:09:26.363Z,6.20
2018-08-09T07:11:55.221Z,6.60
2018-08-09T07:14:24.139Z,5.90
2018-08-09T07:16:52.825Z,6.37
2018-08-09T07:19:21.657Z,6.10
2018-08-09T07:21:50.645Z,6.17
2018-08-09T07:24:19.492Z,6.13
2018-08-09T07:26:48.594Z,6.07
2018-08-09T07:29:17.737Z,7.07
2018-08-09T07:31:46.838Z,5.57
2018-08-09T07:34:15.674Z,6.13
2018-08-09T07:36:45.800Z,6.97
2018-08-09T07:39:14.753Z,6.50
2018-08-09T07:41:43.614Z,5.80
2018-08-09T07:44:13.195Z,6.60
2018-08-09T07:46:42.160Z,20.03
2018-08-09T07:49:11.252Z,7.13
2018-08-09T07:51:40.167Z,6.90
2018-08-09T07:54:09.232Z,7.03
2018-08-09T07:56:38.354Z,5.90
2018-08-09T07:59:07.067Z,6.87
2018-08-09T08:01:36.108Z,7.50
2018-08-09T08:04:05.066Z,6.40
2018-08-09T08:06:33.922Z,6.80
2018-08-09T08:09:03.206Z,7.03
2018-08-09T08:11:32.252Z,7.13
2018-08-09T08:14:01.394Z,6.37
2018-08-09T08:16:30.509Z,6.53
2018-08-09T08:18:59.770Z,6.90
2018-08-09T08:21:28.626Z,7.30
2018-08-09T08:23:57.784Z,7.37
2018-08-09T08:26:26.881Z,7.03
2018-08-09T08:28:55.773Z,8.13
2018-08-09T08:31:24.731Z,6.63
2018-08-09T08:33:53.745Z,7.20
2018-08-09T08:36:22.917Z,7.73
2018-08-09T08:38:51.963Z,7.07
2018-08-09T08:41:20.909Z,8.53
2018-08-09T08:43:49.700Z,8.20
2018-08-09T08:46:18.777Z,6.77
2018-08-09T08:48:47.773Z,6.87
2018-08-09T08:51:16.890Z,7.33
2018-08-09T08:53:45.708Z,8.03
2018-08-09T08:56:14.593Z,7.20
2018-08-09T08:58:43.768Z,7.97
2018-08-09T09:01:13.175Z,7.67
2018-08-09T09:03:42.506Z,6.80
2018-08-09T09:06:11.416Z,7.63
2018-08-09T09:08:40.352Z,7.40
2018-08-09T09:11:09.374Z,7.70
2018-08-09T09:13:38.263Z,6.97
2018-08-09T09:16:07.576Z,7.53
2018-08-09T09:18:36.520Z,8.03
2018-08-09T09:21:05.735Z,7.63
2018-08-09T09:23:34.650Z,7.30
2018-08-09T09:26:03.545Z,7.47
2018-08-09T09:28:32.432Z,7.03
2018-08-09T09:31:01.533Z,7.70
2018-08-09T09:33:30.627Z,7.67
2018-08-09T09:35:59.714Z,8.50
2018-08-09T09:38:28.605Z,7.70
2018-08-09T09:40:57.712Z,8.33
2018-08-09T09:43:26.524Z,7.83
2018-08-09T09:45:55.276Z,8.77
2018-08-09T09:48:24.383Z,7.80
2018-08-09T09:50:53.262Z,7.23
2018-08-09T09:53:22.546Z,8.13
2018-08-09T09:55:51.643Z,8.30
2018-08-09T09:58:20.548Z,8.17
2018-08-09T10:00:54.919Z,7.70
2018-08-09T10:03:24.075Z,7.10
2018-08-09T10:05:52.952Z,7.37
2018-08-09T10:08:22.045Z,7.30
2018-08-09T10:10:50.951Z,6.80
2018-08-09T10:13:20.048Z,7.67
2018-08-09T10:15:55.901Z,8.07
2018-08-09T10:18:24.997Z,8.30
2018-08-09T10:20:53.887Z,7.27
2018-08-09T10:23:22.775Z,7.10
2018-08-09T10:25:51.867Z,7.57
2018-08-09T10:28:21.174Z,6.80
2018-08-09T10:30:50.042Z,7.40
2018-08-09T10:33:19.135Z,7.10
2018-08-09T10:35:48.257Z,7.27
2018-08-09T10:38:17.145Z,7.20
2018-08-09T10:40:46.031Z,6.90
2018-08-09T10:43:15.136Z,7.00
2018-08-09T10:45:44.217Z,6.30
2018-08-09T10:48:13.109Z,7.47
2018-08-09T10:50:42.206Z,6.87
2018-08-09T10:53:11.039Z,6.70
2018-08-09T10:55:40.178Z,6.27
2018-08-09T10:58:09.378Z,6.00
2018-08-09T11:00:38.388Z,6.37
2018-08-09T11:03:07.480Z,6.10
2018-08-09T11:05:36.526Z,5.90
2018-08-09T11:08:05.686Z,6.17
2018-08-09T11:10:34.536Z,6.00
2018-08-09T11:13:03.665Z,6.00
2018-08-09T11:15:32.549Z,5.97
2018-08-09T11:18:01.441Z,5.67
2018-08-09T11:20:30.542Z,5.57
2018-08-09T11:22:59.568Z,4.70
2018-08-09T11:25:28.681Z,4.87
2018-08-09T11:27:57.620Z,4.80
2018-08-09T11:30:26.465Z,4.83
2018-08-09T11:32:55.560Z,5.30
2018-08-09T11:35:24.502Z,4.53
2018-08-09T11:37:53.392Z,4.00
2018-08-09T11:40:22.281Z,4.10
2018-08-09T11:42:51.166Z,4.03
2018-08-09T11:45:20.267Z,4.40
2018-08-09T11:47:49.153Z,4.33
2018-08-09T11:50:18.828Z,3.80
2018-08-09T11:52:47.919Z,3.80
2018-08-09T11:55:17.054Z,3.50
2018-08-09T11:57:46.154Z,3.60
2018-08-09T12:00:15.250Z,4.00
2018-08-09T12:02:44.440Z,3.77
2018-08-09T12:05:13.379Z,3.70
2018-08-09T12:07:42.373Z,3.80
2018-08-09T12:10:11.213Z,3.47
2018-08-09T12:12:40.319Z,3.63
2018-08-09T12:15:09.372Z,3.50
2018-08-09T12:17:38.299Z,3.50
2018-08-09T12:20:07.650Z,3.47
2018-08-09T12:22:36.576Z,3.40
2018-08-09T12:25:06.191Z,3.20
2018-08-09T12:27:35.292Z,3.57
2018-08-09T12:30:05.698Z,3.40
2018-08-09T12:32:34.394Z,3.40
2018-08-09T12:35:03.352Z,3.20
2018-08-09T12:37:32.473Z,3.40
2018-08-09T12:40:01.381Z,3.33
2018-08-09T12:42:30.274Z,3.03
2018-08-09T12:45:01.996Z,3.60
2018-08-09T12:47:31.192Z,3.47
2018-08-09T12:50:00.221Z,3.30
2018-08-09T12:52:29.090Z,4.37
2018-08-09T12:54:58.217Z,3.23
2018-08-09T12:57:27.110Z,3.00
2018-08-09T12:59:56.066Z,3.40
2018-08-09T13:02:25.300Z,3.50
2018-08-09T13:04:54.396Z,3.33
2018-08-09T13:07:23.128Z,3.50
2018-08-09T13:09:51.971Z,3.50
2018-08-09T13:12:21.000Z,3.22
2018-08-09T13:14:49.954Z,3.12
2018-08-09T13:17:18.794Z,2.65
2018-08-09T13:19:48.111Z,3.30
2018-08-09T13:22:17.304Z,2.93
2018-08-09T13:24:48.327Z,3.30
2018-08-09T13:27:17.637Z,3.42
2018-08-09T13:29:46.580Z,3.00
2018-08-09T13:32:15.676Z,3.10
2018-08-09T13:34:44.770Z,3.08
2018-08-09T13:37:13.640Z,3.35
2018-08-09T13:39:42.559Z,3.57
2018-08-09T13:42:11.990Z,3.60
2018-08-09T13:44:40.951Z,2.72
2018-08-09T13:47:11.353Z,3.10
2018-08-09T13:49:40.364Z,3.23
2018-08-09T13:52:09.563Z,2.70
2018-08-09T13:55:42.006Z,3.17
2018-08-09T13:58:13.137Z,3.10
2018-08-09T14:00:44.866Z,3.37
2018-08-09T14:03:13.830Z,3.15
2018-08-09T14:05:43.014Z,3.20
2018-08-09T14:08:11.760Z,2.90
2018-08-09T14:10:41.109Z,3.22
2018-08-09T14:13:10.017Z,3.53
2018-08-09T14:15:39.316Z,3.07
2018-08-09T14:18:08.211Z,3.10
2018-08-09T14:20:37.305Z,3.40
2018-08-09T14:23:06.579Z,3.40
2018-08-09T14:25:35.904Z,3.60
2018-08-09T14:28:06.302Z,3.10
2018-08-09T14:30:35.324Z,3.03
2018-08-09T14:33:09.890Z,3.33
2018-08-09T14:35:39.567Z,3.30
2018-08-09T14:38:08.547Z,3.07
2018-08-09T14:40:37.621Z,3.40
2018-08-09T14:43:06.567Z,3.47
2018-08-09T14:45:35.684Z,3.23
2018-08-09T14:48:04.661Z,3.13
2018-08-09T14:50:34.235Z,3.70
2018-08-09T14:53:03.329Z,3.00
2018-08-09T14:55:32.426Z,3.93
2018-08-09T14:58:01.292Z,3.40
2018-08-09T15:00:31.026Z,3.70
2018-08-09T15:02:59.915Z,3.83
2018-08-09T15:05:31.778Z,3.40
2018-08-09T15:08:00.709Z,4.00
2018-08-09T15:10:30.052Z,3.37
2018-08-09T15:12:58.991Z,4.07
2018-08-09T15:15:28.306Z,4.00
2018-08-09T15:17:57.692Z,3.83
2018-08-09T15:20:26.661Z,3.80
2018-08-09T15:22:55.710Z,4.60
2018-08-09T15:25:24.604Z,3.30
2018-08-09T15:27:53.717Z,3.40
2018-08-09T15:30:22.890Z,4.20
2018-08-09T15:32:51.657Z,4.40
2018-08-09T15:35:20.819Z,4.97
2018-08-09T15:37:49.889Z,5.03
2018-08-09T15:40:18.807Z,5.00
2018-08-09T15:42:47.643Z,5.57
2018-08-09T15:45:17.061Z,5.20
2018-08-09T15:47:45.957Z,5.30
2018-08-09T15:50:18.384Z,5.60
2018-08-09T15:52:47.535Z,5.50
2018-08-09T15:55:17.614Z,6.00
2018-08-09T15:57:46.531Z,5.77
2018-08-09T16:00:19.855Z,6.30
2018-08-09T16:02:48.788Z,5.60
2018-08-09T16:05:18.117Z,5.80
2018-08-09T16:07:47.667Z,5.50
2018-08-09T16:10:17.571Z,6.20
2018-08-09T16:12:47.188Z,6.07
2018-08-09T16:15:18.429Z,5.73
2018-08-09T16:17:47.937Z,5.50
2018-08-09T16:20:17.500Z,5.70
2018-08-09T16:22:47.336Z,5.67
2018-08-09T16:25:18.881Z,6.13
2018-08-09T16:27:48.472Z,6.10
2018-08-09T16:30:19.489Z,6.00
2018-08-09T16:32:48.433Z,5.30
2018-08-09T16:35:17.498Z,5.97
2018-08-09T16:37:46.802Z,5.50
2018-08-09T16:40:19.017Z,5.93
2018-08-09T16:42:48.193Z,5.70
2018-08-09T16:45:18.443Z,5.23
2018-08-09T16:47:47.880Z,5.23
2018-08-09T16:50:18.997Z,6.70
2018-08-09T16:52:48.613Z,5.80
2018-08-09T16:55:18.304Z,5.70
2018-08-09T16:57:47.286Z,5.90
2018-08-09T17:00:18.025Z,5.30
2018-08-09T17:02:47.178Z,6.30
2018-08-09T17:05:19.472Z,6.13
2018-08-09T17:07:48.903Z,6.50
2018-08-09T17:10:19.200Z,5.90
2018-08-09T17:12:48.058Z,5.90
2018-08-09T17:18:53.028Z,6.70
2018-08-09T17:21:29.066Z,6.40
2018-08-09T17:23:57.888Z,5.77
2018-08-09T17:26:27.004Z,6.57
2018-08-09T17:28:56.311Z,6.63
2018-08-09T17:31:25.616Z,6.20
2018-08-09T17:33:54.525Z,5.80
2018-08-09T17:36:23.802Z,6.20
2018-08-09T17:38:52.590Z,6.97
2018-08-09T17:41:21.583Z,5.93
2018-08-09T17:43:51.642Z,5.90
2018-08-09T17:46:21.773Z,6.43
2018-08-09T17:48:50.848Z,6.30
2018-08-09T17:51:19.804Z,7.07
2018-08-09T17:53:48.699Z,6.93
2018-08-09T17:56:17.797Z,6.43
2018-08-09T17:58:46.838Z,6.80
2018-08-09T18:01:15.854Z,7.73
2018-08-09T18:03:44.662Z,5.80
2018-08-09T18:06:13.772Z,7.20
2018-08-09T18:08:42.853Z,7.80
2018-08-09T18:11:11.956Z,6.00
2018-08-09T18:13:40.913Z,6.93
2018-08-09T18:16:09.902Z,7.50
2018-08-09T18:18:39.040Z,7.20
2018-08-09T18:21:08.311Z,6.50
2018-08-09T18:23:37.848Z,7.00
2018-08-09T18:26:07.045Z,6.80
2018-08-09T18:28:36.238Z,7.03
2018-08-09T18:31:05.370Z,7.30
2018-08-09T18:33:34.641Z,6.77
2018-08-09T18:36:04.067Z,6.70
2018-08-09T18:38:33.176Z,6.63
2018-08-09T18:41:03.142Z,6.53
2018-08-09T18:43:32.635Z,6.83
2018-08-09T18:46:01.537Z,6.33
2018-08-09T18:48:31.098Z,6.50
2018-08-09T18:51:00.355Z,7.43
2018-08-09T18:53:29.453Z,6.80
2018-08-09T18:55:58.750Z,7.10
2018-08-09T18:58:27.637Z,5.53
2018-08-09T19:00:56.944Z,6.70
2018-08-09T19:03:26.014Z,7.10
2018-08-09T19:05:55.307Z,6.57
2018-08-09T19:08:24.431Z,6.73
2018-08-09T19:10:53.453Z,6.00
2018-08-09T19:13:22.620Z,5.53
2018-08-09T19:15:52.150Z,5.83
2018-08-09T19:18:21.016Z,6.40
2018-08-09T19:20:50.110Z,6.00
2018-08-09T19:23:19.272Z,5.60
2018-08-09T19:25:48.303Z,5.70
2018-08-09T19:28:17.398Z,6.10
2018-08-09T19:30:46.496Z,5.77
2018-08-09T19:33:15.580Z,6.10
2018-08-09T19:35:50.327Z,6.37
2018-08-09T19:38:19.700Z,5.83
2018-08-09T19:40:50.889Z,5.30
2018-08-09T19:43:19.952Z,6.37
2018-08-09T19:45:49.250Z,6.43
2018-08-09T19:48:18.118Z,5.67
2018-08-09T19:50:47.764Z,6.00
2018-08-09T19:53:16.548Z,5.87
2018-08-09T19:55:48.025Z,5.93
2018-08-09T19:58:17.193Z,5.57
2018-08-09T20:00:46.072Z,6.17
2018-08-09T20:03:14.975Z,6.63
2018-08-09T20:05:44.281Z,6.90
2018-08-09T20:08:43.771Z,9.60
2018-08-09T20:11:13.195Z,8.77
2018-08-09T20:13:42.089Z,8.50
2018-08-09T20:16:11.173Z,9.03
2018-08-09T20:18:41.385Z,9.23
2018-08-09T20:21:10.780Z,8.93
2018-08-09T20:23:39.895Z,9.20
2018-08-09T20:26:09.199Z,9.97
2018-08-09T20:28:38.509Z,9.53
2018-08-09T20:31:07.737Z,10.50
2018-08-09T20:33:36.792Z,10.40
2018-08-09T20:36:05.874Z,8.27
2018-08-09T20:38:35.297Z,11.07
2018-08-09T20:41:04.622Z,9.47
2018-08-09T20:43:33.529Z,8.90
2018-08-09T20:46:02.394Z,9.93
2018-08-09T20:48:31.313Z,9.93
2018-08-09T20:51:00.480Z,10.17
2018-08-09T20:53:29.632Z,8.70
2018-08-09T20:55:58.594Z,11.60
2018-08-09T20:58:27.649Z,10.73
2018-08-09T21:00:56.745Z,10.70
2018-08-09T21:03:25.837Z,12.83
2018-08-09T21:05:55.007Z,9.27
2018-08-09T21:08:25.134Z,10.60
2018-08-09T21:10:54.762Z,10.10
2018-08-09T21:13:23.702Z,9.90
2018-08-09T21:15:53.019Z,10.87
2018-08-09T21:18:22.209Z,10.57
2018-08-09T21:20:51.346Z,9.70
2018-08-09T21:23:20.150Z,9.40
2018-08-09T21:25:49.331Z,10.40
2018-08-09T21:28:18.840Z,10.27
2018-08-09T21:30:47.913Z,10.20
2018-08-09T21:33:19.156Z,11.07
2018-08-09T21:35:48.441Z,9.53
2018-08-09T21:38:18.474Z,9.97
2018-08-09T21:40:50.390Z,9.60
2018-08-09T21:43:21.453Z,10.30
2018-08-09T21:45:50.496Z,11.20
2018-08-09T21:48:20.245Z,10.80
2018-08-09T21:50:49.620Z,12.13
2018-08-09T21:53:19.385Z,10.00
2018-08-09T21:55:48.988Z,10.53
2018-08-09T21:58:17.993Z,11.23
2018-08-09T22:00:58.996Z,10.43
2018-08-09T22:03:30.802Z,11.83
2018-08-09T22:06:05.403Z,11.43
2018-08-09T22:08:39.802Z,11.23
2018-08-09T22:11:15.902Z,11.13
2018-08-09T22:13:53.388Z,9.87
2018-08-09T22:16:28.093Z,11.10
2018-08-09T22:19:02.500Z,11.97
2018-08-09T22:21:36.512Z,11.50
2018-08-09T22:24:05.853Z,11.50
2018-08-09T22:26:34.700Z,11.23
2018-08-09T22:29:03.799Z,10.73
2018-08-09T22:31:32.891Z,11.77
2018-08-09T22:34:01.997Z,10.67
2018-08-09T22:36:31.084Z,11.30
2018-08-09T22:39:00.173Z,9.90
2018-08-09T22:41:29.218Z,9.17
2018-08-09T22:43:58.383Z,10.37
2018-08-09T22:46:27.405Z,9.33
2018-08-09T22:48:56.961Z,9.13
2018-08-09T22:51:26.034Z,10.10
2018-08-09T22:54:01.505Z,10.30
2018-08-09T22:56:30.457Z,9.90
2018-08-09T22:58:59.702Z,9.80
2018-08-09T23:01:28.794Z,9.60
2018-08-09T23:03:57.896Z,9.93
2018-08-09T23:06:28.228Z,9.27
2018-08-09T23:08:57.527Z,7.90
2018-08-09T23:11:26.717Z,9.60
2018-08-09T23:13:55.654Z,9.20
2018-08-09T23:16:24.572Z,10.47
2018-08-09T23:18:54.037Z,9.80
2018-08-09T23:21:22.998Z,10.07
2018-08-09T23:23:52.443Z,9.87
2018-08-09T23:26:21.786Z,11.20
2018-08-09T23:29:21.005Z,9.30
2018-08-09T23:31:50.093Z,8.13
2018-08-09T23:34:19.190Z,9.30
2018-08-09T23:36:48.848Z,10.80
2018-08-09T23:39:18.003Z,10.00
2018-08-09T23:41:46.889Z,9.27
2018-08-09T23:44:15.660Z,9.80
2018-08-09T23:46:44.670Z,9.27
2018-08-09T23:49:13.480Z,9.43
2018-08-09T23:51:42.299Z,9.63
2018-08-09T23:54:11.416Z,10.03
2018-08-09T23:56:40.224Z,10.70
2018-08-09T23:59:09.535Z,10.00
